Time;durP1;ratioP1;P1;durP2;ratioP2;P2;SDS_P1;SDS_P2;PMS_P1;PMS_P2;Temp;Humidity;BMP_temperature;BMP_pressure;BME280_temperature;BME280_humidity;BME280_pressure;Samples;Min_cycle;Max_cycle;Signal;HPM_P1;HPM_P2
2022/11/03 00:01:36;;;;;;;9.10;3.87;;;10.10;99.90;;;;;;4921799;29;20464;-73
2022/11/03 00:04:07;;;;;;;7.40;3.30;;;10.10;99.90;;;;;;4920742;29;20448;-73
2022/11/03 00:06:36;;;;;;;13.50;3.40;;;10.20;99.90;;;;;;4921922;29;20464;-73
2022/11/03 00:09:06;;;;;;;6.17;3.30;;;10.20;99.90;;;;;;4922085;29;20467;-73
2022/11/03 00:11:35;;;;;;;6.77;3.00;;;10.20;99.90;;;;;;4921832;29;20471;-73
2022/11/03 00:14:03;;;;;;;5.83;3.27;;;10.20;99.90;;;;;;4920358;29;20869;-73
2022/11/03 00:16:32;;;;;;;7.00;3.53;;;10.20;99.90;;;;;;4921630;29;20849;-73
2022/11/03 00:19:01;;;;;;;9.53;2.90;;;10.20;99.90;;;;;;4921542;29;20448;-73
2022/11/03 00:21:30;;;;;;;6.80;3.23;;;10.20;99.90;;;;;;4921614;29;20480;-73
2022/11/03 00:24:01;;;;;;;9.03;3.00;;;10.20;99.90;;;;;;4921843;29;20802;-73
2022/11/03 00:26:30;;;;;;;6.13;3.17;;;10.20;99.90;;;;;;4920566;29;20482;-73
2022/11/03 00:29:00;;;;;;;7.13;2.90;;;10.20;99.90;;;;;;4920451;29;20805;-73
2022/11/03 00:31:30;;;;;;;7.93;3.13;;;10.20;99.90;;;;;;4920717;29;20911;-73
2022/11/03 00:34:00;;;;;;;9.97;3.47;;;10.20;99.90;;;;;;4921129;29;20460;-73
2022/11/03 00:36:31;;;;;;;8.00;2.70;;;10.20;99.90;;;;;;4921354;29;20447;-73
2022/11/03 00:38:59;;;;;;;9.23;3.70;;;10.20;99.90;;;;;;4920811;29;20437;-73
2022/11/03 00:41:28;;;;;;;8.43;2.80;;;10.20;99.90;;;;;;4921062;29;20468;-73
2022/11/03 00:43:57;;;;;;;7.90;2.80;;;10.20;99.90;;;;;;4921275;29;20495;-72
2022/11/03 00:46:25;;;;;;;7.43;2.87;;;10.30;99.90;;;;;;4921479;29;20528;-73
2022/11/03 00:48:54;;;;;;;9.53;3.30;;;10.30;99.90;;;;;;4919489;29;20460;-73
2022/11/03 00:51:24;;;;;;;10.20;3.57;;;10.20;99.90;;;;;;4919148;29;20480;-73
2022/11/03 00:53:54;;;;;;;9.17;2.90;;;10.30;99.90;;;;;;4919313;29;20475;-73
2022/11/03 00:56:24;;;;;;;8.40;3.67;;;10.30;99.90;;;;;;4921138;29;20831;-72
2022/11/03 00:58:53;;;;;;;7.33;3.10;;;10.30;99.90;;;;;;4920756;29;20446;-73
2022/11/03 01:01:23;;;;;;;12.17;3.90;;;10.30;99.90;;;;;;4921083;29;20842;-73
2022/11/03 01:06:50;;;;;;;10.20;3.27;;;10.30;99.90;;;;;;4919368;29;20537;-73
2022/11/03 01:09:20;;;;;;;9.60;3.57;;;10.30;99.90;;;;;;4919375;29;20464;-73
2022/11/03 01:11:56;;;;;;;9.73;3.43;;;10.40;99.90;;;;;;4921050;29;20511;-73
2022/11/03 01:14:25;;;;;;;7.50;3.33;;;10.40;99.90;;;;;;4919233;29;20443;-73
2022/11/03 01:16:53;;;;;;;10.27;3.50;;;10.40;99.90;;;;;;4920294;29;20939;-73
2022/11/03 01:19:22;;;;;;;7.43;3.10;;;10.40;99.90;;;;;;4920370;29;20453;-73
2022/11/03 01:21:50;;;;;;;6.67;2.60;;;10.40;99.90;;;;;;4919355;29;20479;-73
2022/11/03 01:24:20;;;;;;;6.63;2.70;;;10.40;99.90;;;;;;4920365;29;20440;-73
2022/11/03 01:26:48;;;;;;;8.00;2.83;;;10.40;99.90;;;;;;4918769;29;20465;-73
2022/11/03 01:29:17;;;;;;;10.20;3.33;;;10.40;99.90;;;;;;4920425;29;20491;-73
2022/11/03 01:31:45;;;;;;;11.50;3.60;;;10.50;99.90;;;;;;4920168;29;20464;-73
2022/11/03 01:34:15;;;;;;;8.00;3.10;;;10.50;99.90;;;;;;4919050;29;20452;-73
2022/11/03 01:36:44;;;;;;;9.10;3.63;;;10.50;99.90;;;;;;4918697;29;20552;-73
2022/11/03 01:39:15;;;;;;;6.17;3.10;;;10.50;99.90;;;;;;4919942;29;20444;-73
2022/11/03 01:41:46;;;;;;;7.27;2.93;;;10.50;99.90;;;;;;4919940;29;20905;-73
2022/11/03 01:44:29;;;;;;;10.40;3.10;;;10.50;99.90;;;;;;4919736;29;20444;-73
2022/11/03 01:47:07;;;;;;;5.47;2.40;;;10.50;99.90;;;;;;4919671;29;20468;-73
2022/11/03 01:49:40;;;;;;;7.23;3.00;;;10.50;99.90;;;;;;4918340;29;20448;-73
2022/11/03 01:52:14;;;;;;;9.00;3.40;;;10.50;99.90;;;;;;4917912;29;20472;-73
2022/11/03 01:54:45;;;;;;;9.47;2.80;;;10.50;99.90;;;;;;4920266;29;20423;-73
2022/11/03 01:57:19;;;;;;;7.53;2.73;;;10.50;99.90;;;;;;4918336;29;20865;-73
2022/11/03 01:59:49;;;;;;;6.57;2.83;;;10.50;99.90;;;;;;4918214;29;20449;-73
2022/11/03 02:02:24;;;;;;;11.07;2.93;;;10.50;99.90;;;;;;4918217;29;20554;-73
2022/11/03 02:04:53;;;;;;;9.63;3.07;;;10.60;99.90;;;;;;4919572;29;20450;-73
2022/11/03 02:07:27;;;;;;;7.70;3.23;;;10.50;99.90;;;;;;4919543;29;20480;-73
2022/11/03 02:09:55;;;;;;;5.97;2.97;;;10.50;99.90;;;;;;4917690;29;20456;-73
2022/11/03 02:12:25;;;;;;;7.77;2.83;;;10.50;99.90;;;;;;4917839;29;20473;-73
2022/11/03 02:14:58;;;;;;;10.30;3.50;;;10.50;99.90;;;;;;4918987;29;20840;-72
2022/11/03 02:17:28;;;;;;;5.60;2.40;;;10.50;99.90;;;;;;4919323;29;20436;-73
2022/11/03 02:20:00;;;;;;;6.20;2.60;;;10.50;99.90;;;;;;4919535;29;20516;-73
2022/11/03 02:22:56;;;;;;;7.33;2.47;;;10.50;99.90;;;;;;4918028;29;20480;-73
2022/11/03 02:25:47;;;;;;;11.27;3.23;;;10.50;99.90;;;;;;4912155;29;20468;-73
2022/11/03 02:28:18;;;;;;;8.00;3.23;;;10.40;99.90;;;;;;4915419;29;20476;-73
2022/11/03 02:30:54;;;;;;;7.00;3.13;;;10.50;99.90;;;;;;4919399;29;20436;-73
2022/11/03 02:33:36;;;;;;;7.30;2.70;;;10.50;99.90;;;;;;4918639;29;20491;-73
2022/11/03 02:36:10;;;;;;;13.60;2.83;;;10.50;99.90;;;;;;4918821;29;20421;-73
2022/11/03 02:38:46;;;;;;;5.63;2.60;;;10.50;99.90;;;;;;4919048;29;20424;-73
2022/11/03 02:41:17;;;;;;;5.80;2.70;;;10.50;99.90;;;;;;4917674;29;20480;-73
2022/11/03 02:43:47;;;;;;;7.97;3.00;;;10.50;99.90;;;;;;4919008;29;20456;-73
2022/11/03 02:46:17;;;;;;;6.07;2.50;;;10.50;99.90;;;;;;4918522;29;20429;-73
2022/11/03 02:48:45;;;;;;;5.60;2.47;;;10.40;99.90;;;;;;4917382;29;20887;-73
2022/11/03 02:51:13;;;;;;;5.63;2.80;;;10.50;99.90;;;;;;4918119;29;20457;-73
2022/11/03 02:53:47;;;;;;;6.10;2.30;;;10.40;99.90;;;;;;4917928;29;20531;-73
2022/11/03 02:56:20;;;;;;;9.40;3.20;;;10.50;99.90;;;;;;4916845;29;20444;-73
2022/11/03 02:58:54;;;;;;;8.10;2.93;;;10.40;99.90;;;;;;4918273;29;20436;-73
2022/11/03 03:01:28;;;;;;;11.73;3.47;;;10.40;99.90;;;;;;4918216;29;20488;-73
2022/11/03 03:03:59;;;;;;;9.63;3.50;;;10.40;99.90;;;;;;4917297;29;20435;-73
2022/11/03 03:06:33;;;;;;;13.23;3.90;;;10.40;99.90;;;;;;4917684;29;20907;-73
2022/11/03 03:09:06;;;;;;;8.20;3.00;;;10.40;99.90;;;;;;4916465;29;21336;-73
2022/11/03 03:11:40;;;;;;;9.20;2.80;;;10.40;99.90;;;;;;4916584;29;20472;-73
2022/11/03 03:14:12;;;;;;;10.77;3.13;;;10.40;99.90;;;;;;4917739;29;20926;-72
2022/11/03 03:16:50;;;;;;;9.30;3.30;;;10.40;99.90;;;;;;4917813;29;20439;-73
2022/11/03 03:19:23;;;;;;;8.47;3.50;;;10.40;99.90;;;;;;4918045;29;20432;-73
2022/11/03 03:21:54;;;;;;;7.27;2.80;;;10.30;99.90;;;;;;4917756;29;20818;-73
2022/11/03 03:24:31;;;;;;;7.43;3.10;;;10.30;99.90;;;;;;4917979;29;20455;-74
2022/11/03 03:27:02;;;;;;;8.20;2.90;;;10.30;99.90;;;;;;4916536;29;20451;-73
2022/11/03 03:29:37;;;;;;;9.80;3.37;;;10.30;99.90;;;;;;4917568;29;20433;-73
2022/11/03 03:32:09;;;;;;;10.10;3.00;;;10.30;99.90;;;;;;4917853;29;20483;-73
2022/11/03 03:34:41;;;;;;;6.70;2.67;;;10.30;99.90;;;;;;4918199;29;20425;-72
2022/11/03 03:37:14;;;;;;;10.50;3.33;;;10.30;99.90;;;;;;4917765;29;20500;-73
2022/11/03 03:39:48;;;;;;;9.30;2.50;;;10.30;99.90;;;;;;4917867;29;20494;-73
2022/11/03 03:42:20;;;;;;;8.57;3.40;;;10.30;99.90;;;;;;4917629;29;20567;-73
2022/11/03 03:44:49;;;;;;;8.00;2.63;;;10.40;99.90;;;;;;4917941;29;20421;-73
2022/11/03 03:47:21;;;;;;;7.13;2.90;;;10.40;99.90;;;;;;4916253;29;20508;-73
2022/11/03 03:49:50;;;;;;;8.23;3.00;;;10.40;99.90;;;;;;4916211;29;20445;-73
2022/11/03 03:52:18;;;;;;;6.93;3.13;;;10.40;99.90;;;;;;4917455;29;20461;-73
2022/11/03 03:54:46;;;;;;;6.93;2.80;;;10.40;99.90;;;;;;4917800;29;20446;-73
2022/11/03 03:57:18;;;;;;;6.90;3.27;;;10.40;99.90;;;;;;4916286;29;20464;-73
2022/11/03 03:59:46;;;;;;;10.57;3.10;;;10.40;99.90;;;;;;4917698;29;20788;-73
2022/11/03 04:02:15;;;;;;;11.93;3.77;;;10.30;99.90;;;;;;4917302;29;20478;-73
2022/11/03 04:04:43;;;;;;;4.63;2.77;;;10.30;99.90;;;;;;4916368;29;20531;-73
2022/11/03 04:09:57;;;;;;;8.20;3.07;;;10.40;99.90;;;;;;4916137;29;20475;-73
2022/11/03 04:23:29;;;;;;;10.20;6.37;;;10.30;99.90;;;;;;4920673;29;20421;-74
2022/11/03 04:25:57;;;;;;;14.80;8.17;;;10.30;99.90;;;;;;4920314;29;20444;-74
2022/11/03 04:28:27;;;;;;;7.63;4.23;;;10.30;99.90;;;;;;4921349;29;20476;-74
2022/11/03 04:30:58;;;;;;;9.53;2.87;;;10.30;99.90;;;;;;4920859;29;20492;-73
2022/11/03 04:33:28;;;;;;;9.90;3.23;;;10.30;99.90;;;;;;4921139;29;20428;-73
2022/11/03 04:35:59;;;;;;;9.73;3.70;;;10.30;99.90;;;;;;4920938;29;20459;-73
2022/11/03 04:38:29;;;;;;;7.47;2.80;;;10.30;99.90;;;;;;4919552;29;20940;-73
2022/11/03 04:40:58;;;;;;;9.00;3.03;;;10.30;99.90;;;;;;4919478;29;20448;-73
2022/11/03 04:43:34;;;;;;;9.63;2.93;;;10.30;99.90;;;;;;4919548;29;20516;-73
2022/11/03 04:46:03;;;;;;;7.27;2.80;;;10.30;99.90;;;;;;4921137;29;20420;-73
2022/11/03 04:48:33;;;;;;;9.33;3.00;;;10.30;99.90;;;;;;4919568;29;20884;-73
2022/11/03 04:51:11;;;;;;;9.60;3.10;;;10.30;99.90;;;;;;4918950;29;20452;-73
2022/11/03 04:53:43;;;;;;;6.60;2.93;;;10.30;99.90;;;;;;4920703;29;20480;-73
2022/11/03 04:56:15;;;;;;;7.67;2.80;;;10.30;99.90;;;;;;4919272;29;20444;-73
2022/11/03 04:58:47;;;;;;;9.03;3.10;;;10.30;99.90;;;;;;4920485;29;20420;-73
2022/11/03 05:01:17;;;;;;;10.23;3.27;;;10.30;99.90;;;;;;4919234;29;20475;-72
2022/11/03 05:03:53;;;;;;;7.97;3.20;;;10.30;99.90;;;;;;4920819;29;20440;-73
2022/11/03 05:06:23;;;;;;;6.20;3.03;;;10.30;99.90;;;;;;4919893;29;20503;-73
2022/11/03 05:08:55;;;;;;;7.90;2.57;;;10.30;99.90;;;;;;4920084;29;20883;-73
2022/11/03 05:11:29;;;;;;;9.07;3.10;;;10.30;99.90;;;;;;4920908;29;20487;-73
2022/11/03 05:14:02;;;;;;;8.10;2.90;;;10.30;99.90;;;;;;4920598;29;20915;-73
2022/11/03 05:16:31;;;;;;;6.70;2.87;;;10.30;99.90;;;;;;4920489;29;20436;-72
2022/11/03 05:19:00;;;;;;;5.90;2.70;;;10.30;99.90;;;;;;4920074;29;20938;-73
2022/11/03 05:21:28;;;;;;;6.90;3.47;;;10.30;99.90;;;;;;4920322;29;20475;-73
2022/11/03 05:24:00;;;;;;;11.67;3.30;;;10.30;99.90;;;;;;4920360;29;20508;-72
2022/11/03 05:26:32;;;;;;;8.93;3.10;;;10.40;99.90;;;;;;4919360;29;20836;-73
2022/11/03 05:29:04;;;;;;;7.17;3.00;;;10.40;99.90;;;;;;4919727;29;20464;-73
2022/11/03 05:31:35;;;;;;;6.43;3.13;;;10.40;99.90;;;;;;4919850;29;20499;-73
2022/11/03 05:34:15;;;;;;;7.07;3.10;;;10.40;99.90;;;;;;4920033;29;20484;-73
2022/11/03 05:36:43;;;;;;;7.93;2.97;;;10.40;99.90;;;;;;4919759;29;20420;-73
2022/11/03 05:39:28;;;;;;;8.60;3.57;;;10.40;99.90;;;;;;4920076;29;20441;-73
2022/11/03 05:41:57;;;;;;;10.53;4.17;;;10.40;99.90;;;;;;4919764;29;20474;-73
2022/11/03 05:44:31;;;;;;;7.40;4.10;;;10.40;99.90;;;;;;4919863;29;20452;-73
2022/11/03 05:47:01;;;;;;;10.37;4.13;;;10.40;99.90;;;;;;4920109;29;20504;-73
2022/11/03 05:49:35;;;;;;;8.20;4.10;;;10.40;99.90;;;;;;4919979;29;20464;-73
2022/11/03 05:52:03;;;;;;;9.27;3.90;;;10.40;99.90;;;;;;4919368;29;20468;-73
2022/11/03 05:54:34;;;;;;;6.67;3.17;;;10.40;99.90;;;;;;4918062;29;20467;-72
2022/11/03 05:57:07;;;;;;;8.13;3.43;;;10.40;99.90;;;;;;4921917;29;20436;-73
2022/11/03 05:59:37;;;;;;;7.80;3.30;;;10.40;99.90;;;;;;4918655;29;20480;-73
2022/11/03 06:02:23;;;;;;;7.50;4.00;;;10.40;99.90;;;;;;4919779;29;20464;-74
2022/11/03 06:04:52;;;;;;;9.50;4.00;;;10.40;99.90;;;;;;4918529;29;20421;-73
2022/11/03 06:07:24;;;;;;;8.57;4.50;;;10.40;99.90;;;;;;4918553;29;20436;-73
2022/11/03 06:09:53;;;;;;;9.57;5.40;;;10.40;99.90;;;;;;4916962;29;21027;-74
2022/11/03 06:12:22;;;;;;;9.53;5.97;;;10.40;99.90;;;;;;4918046;29;20973;-74
2022/11/03 06:14:52;;;;;;;14.70;7.00;;;10.40;99.90;;;;;;4917010;29;20472;-73
2022/11/03 06:17:23;;;;;;;7.60;3.30;;;10.40;99.90;;;;;;4917855;29;20444;-73
2022/11/03 06:19:54;;;;;;;10.83;3.53;;;10.40;99.90;;;;;;4918461;29;20480;-73
2022/11/03 06:22:26;;;;;;;9.23;4.17;;;10.40;99.90;;;;;;4916570;29;20491;-74
2022/11/03 06:24:58;;;;;;;8.23;4.00;;;10.40;99.90;;;;;;4918422;29;20488;-74
2022/11/03 06:27:30;;;;;;;11.47;3.70;;;10.40;99.90;;;;;;4916574;29;20543;-73
2022/11/03 06:30:20;;;;;;;9.57;4.00;;;10.40;99.90;;;;;;4917998;29;20516;-74
2022/11/03 06:32:49;;;;;;;7.83;4.40;;;10.30;99.90;;;;;;4916664;29;20504;-73
2022/11/03 06:35:17;;;;;;;12.27;4.10;;;10.30;99.90;;;;;;4918324;29;20511;-73
2022/11/03 06:37:46;;;;;;;6.37;3.30;;;10.30;99.90;;;;;;4917788;29;20468;-73
2022/11/03 06:40:37;;;;;;;11.50;5.03;;;10.30;99.90;;;;;;4918183;29;20551;-73
2022/11/03 06:43:18;;;;;;;7.40;3.33;;;10.30;99.90;;;;;;4918556;29;20835;-73
2022/11/03 06:45:51;;;;;;;7.27;3.50;;;10.30;99.90;;;;;;4918009;29;20440;-73
2022/11/03 06:48:27;;;;;;;8.67;4.10;;;10.30;99.90;;;;;;4917669;29;20421;-73
2022/11/03 06:50:56;;;;;;;10.40;4.70;;;10.30;99.90;;;;;;4917551;29;20823;-73
2022/11/03 06:53:27;;;;;;;7.53;3.60;;;10.30;99.90;;;;;;4917689;29;20447;-73
2022/11/03 06:55:55;;;;;;;7.20;3.63;;;10.30;99.90;;;;;;4917896;29;20433;-73
2022/11/03 06:58:28;;;;;;;12.40;5.40;;;10.30;99.90;;;;;;4917265;29;20476;-73
2022/11/03 07:00:59;;;;;;;8.60;3.60;;;10.30;99.90;;;;;;4915966;29;20812;-73
2022/11/03 07:03:34;;;;;;;11.83;6.50;;;10.30;99.90;;;;;;4917512;29;20507;-73
2022/11/03 07:06:05;;;;;;;12.00;6.10;;;10.30;99.90;;;;;;4917673;29;20891;-73
2022/11/03 07:08:37;;;;;;;8.40;4.30;;;10.30;99.90;;;;;;4917191;29;20494;-73
2022/11/03 07:11:14;;;;;;;6.97;3.93;;;10.30;99.90;;;;;;4915905;29;20951;-73
2022/11/03 07:13:43;;;;;;;7.47;3.50;;;10.30;99.90;;;;;;4917461;29;20420;-74
2022/11/03 07:16:27;;;;;;;8.87;3.67;;;10.30;99.90;;;;;;4917337;29;20444;-73
2022/11/03 07:18:59;;;;;;;7.33;4.30;;;10.40;99.90;;;;;;4917141;29;20792;-73
2022/11/03 07:21:36;;;;;;;15.80;8.20;;;10.40;99.90;;;;;;4917291;29;20492;-73
2022/11/03 07:24:13;;;;;;;8.87;3.97;;;10.40;99.90;;;;;;4915898;29;20454;-73
2022/11/03 07:26:41;;;;;;;7.67;3.37;;;10.40;99.90;;;;;;4917007;29;20432;-73
2022/11/03 07:29:15;;;;;;;9.53;3.60;;;10.40;99.90;;;;;;4917470;29;20492;-74
2022/11/03 07:31:44;;;;;;;7.70;3.27;;;10.50;99.90;;;;;;4917216;29;20870;-73
2022/11/03 07:34:19;;;;;;;9.50;3.73;;;10.50;99.90;;;;;;4916989;29;20451;-74
2022/11/03 07:36:47;;;;;;;10.97;3.70;;;10.50;99.90;;;;;;4917247;29;20432;-74
2022/11/03 07:39:22;;;;;;;6.50;3.67;;;10.50;99.90;;;;;;4917187;29;20439;-73
2022/11/03 07:41:51;;;;;;;7.00;3.17;;;10.60;99.90;;;;;;4915613;29;20465;-73
2022/11/03 07:44:21;;;;;;;10.57;4.10;;;10.60;99.90;;;;;;4915641;29;20508;-73
2022/11/03 07:46:50;;;;;;;7.03;3.40;;;10.60;99.90;;;;;;4917361;29;20441;-73
2022/11/03 07:49:26;;;;;;;11.20;3.70;;;10.70;99.90;;;;;;4916792;29;20549;-73
2022/11/03 07:51:56;;;;;;;7.80;3.80;;;10.70;99.90;;;;;;4920280;29;20452;-74
2022/11/03 07:54:28;;;;;;;8.03;2.87;;;10.70;99.90;;;;;;4920774;29;20443;-73
2022/11/03 07:56:58;;;;;;;8.63;3.30;;;10.80;99.90;;;;;;4920447;29;20421;-73
2022/11/03 07:59:31;;;;;;;7.33;3.63;;;10.80;99.90;;;;;;4920328;29;20439;-73
2022/11/03 08:02:01;;;;;;;7.67;3.33;;;10.90;99.90;;;;;;4920763;29;20482;-73
2022/11/03 08:04:33;;;;;;;8.60;3.47;;;10.90;99.90;;;;;;4920665;29;20425;-73
2022/11/03 08:07:01;;;;;;;8.17;4.50;;;11.00;99.90;;;;;;4918996;29;20950;-73
2022/11/03 08:09:29;;;;;;;10.90;5.17;;;11.00;99.90;;;;;;4920300;29;20823;-73
2022/11/03 08:11:57;;;;;;;9.07;3.40;;;11.10;99.90;;;;;;4919082;29;20476;-72
2022/11/03 08:14:26;;;;;;;6.90;3.20;;;11.10;99.90;;;;;;4920540;29;20468;-73
2022/11/03 08:16:54;;;;;;;9.90;3.70;;;11.20;99.90;;;;;;4920261;29;20480;-73
2022/11/03 08:19:23;;;;;;;8.80;3.47;;;11.20;99.90;;;;;;4920276;29;20451;-73
2022/11/03 08:21:51;;;;;;;8.17;3.50;;;11.30;99.90;;;;;;4920355;29;20475;-74
2022/11/03 08:24:19;;;;;;;8.90;3.33;;;11.30;99.90;;;;;;4920098;29;20445;-73
2022/11/03 08:26:47;;;;;;;9.43;3.60;;;11.40;99.90;;;;;;4918760;29;20618;-75
2022/11/03 08:29:17;;;;;;;10.90;3.80;;;11.40;99.90;;;;;;4920084;29;20479;-73
2022/11/03 08:31:45;;;;;;;7.10;2.80;;;11.50;99.90;;;;;;4920061;29;20480;-73
2022/11/03 08:34:13;;;;;;;8.20;3.27;;;11.50;99.90;;;;;;4918829;29;20448;-73
2022/11/03 08:36:42;;;;;;;5.80;2.67;;;11.60;99.90;;;;;;4918545;29;20467;-73
2022/11/03 08:39:10;;;;;;;8.70;3.00;;;11.60;99.90;;;;;;4919889;29;20436;-73
2022/11/03 08:41:38;;;;;;;7.77;3.40;;;11.70;99.90;;;;;;4919916;29;20974;-73
2022/11/03 08:44:07;;;;;;;9.00;3.33;;;11.80;99.90;;;;;;4920239;29;20480;-73
2022/11/03 08:46:35;;;;;;;10.57;3.47;;;11.80;99.90;;;;;;4919649;29;20440;-73
2022/11/03 08:49:03;;;;;;;6.80;3.27;;;11.90;99.90;;;;;;4918805;29;20460;-73
2022/11/03 08:51:31;;;;;;;7.67;3.47;;;11.90;99.90;;;;;;4918187;29;20527;-73
2022/11/03 08:54:00;;;;;;;7.93;3.60;;;12.00;99.90;;;;;;4919855;29;20445;-73
2022/11/03 08:56:29;;;;;;;8.90;3.17;;;12.00;99.90;;;;;;4918894;29;20464;-73
2022/11/03 08:58:57;;;;;;;8.60;3.67;;;12.10;99.90;;;;;;4919439;29;21032;-73
2022/11/03 09:01:25;;;;;;;9.87;4.17;;;12.10;99.90;;;;;;4918436;29;20551;-74
2022/11/03 09:03:53;;;;;;;7.60;3.97;;;12.20;99.90;;;;;;4917811;29;20484;-73
2022/11/03 09:06:21;;;;;;;7.13;3.77;;;12.20;99.90;;;;;;4919463;29;20456;-73
2022/11/03 09:08:49;;;;;;;6.80;3.00;;;12.30;99.90;;;;;;4919323;29;20441;-74
2022/11/03 09:11:38;;;;;;;5.70;2.40;;;12.30;99.90;;;;;;4919150;29;20488;-73
2022/11/03 09:14:06;;;;;;;7.40;3.53;;;12.40;99.90;;;;;;4919456;29;20496;-73
2022/11/03 09:16:34;;;;;;;9.67;3.20;;;12.40;99.90;;;;;;4919423;29;20444;-73
2022/11/03 09:19:04;;;;;;;8.50;3.37;;;12.50;99.90;;;;;;4919750;29;20440;-73
2022/11/03 09:21:32;;;;;;;8.20;3.43;;;12.50;99.90;;;;;;4919165;29;20516;-74
2022/11/03 09:24:00;;;;;;;9.00;3.47;;;12.50;99.90;;;;;;4919462;29;20451;-74
2022/11/03 09:26:28;;;;;;;7.80;3.53;;;12.60;99.90;;;;;;4917743;29;20456;-73
2022/11/03 09:28:57;;;;;;;9.20;3.07;;;12.60;99.90;;;;;;4919402;29;20472;-74
2022/11/03 09:31:27;;;;;;;10.50;4.13;;;12.70;99.90;;;;;;4920405;29;20479;-74
2022/11/03 09:33:55;;;;;;;6.63;2.97;;;12.70;99.90;;;;;;4919050;29;20454;-73
2022/11/03 09:36:23;;;;;;;7.90;3.50;;;12.80;99.90;;;;;;4919064;29;20507;-74
2022/11/03 09:38:51;;;;;;;9.57;3.40;;;12.90;99.90;;;;;;4918828;29;20432;-73
2022/11/03 09:41:19;;;;;;;6.37;2.90;;;12.90;99.90;;;;;;4919038;29;20473;-73
2022/11/03 09:44:10;;;;;;;9.00;3.07;;;13.00;99.90;;;;;;4917639;29;20459;-74
2022/11/03 09:46:38;;;;;;;9.23;3.37;;;13.10;99.90;;;;;;4919105;29;20429;-73
2022/11/03 09:49:07;;;;;;;11.37;3.90;;;13.10;99.90;;;;;;4918651;29;20965;-73
2022/11/03 09:51:35;;;;;;;8.47;3.00;;;13.20;99.90;;;;;;4918311;29;20547;-74
2022/11/03 09:54:05;;;;;;;7.43;2.70;;;13.20;99.90;;;;;;4918523;29;20491;-73
2022/11/03 09:56:36;;;;;;;10.57;2.90;;;13.20;99.90;;;;;;4918766;29;20452;-73
2022/11/03 09:59:14;;;;;;;7.77;2.70;;;13.30;99.90;;;;;;4918632;29;20425;-73
2022/11/03 10:01:44;;;;;;;10.30;4.93;;;13.30;99.90;;;;;;4918407;29;20519;-73
2022/11/03 10:04:13;;;;;;;5.90;2.67;;;13.40;99.90;;;;;;4918681;29;20420;-74
2022/11/03 10:06:41;;;;;;;5.10;2.67;;;13.40;99.90;;;;;;4919191;29;20436;-74
2022/11/03 10:09:14;;;;;;;7.40;2.90;;;13.50;99.90;;;;;;4918446;29;20456;-73
2022/11/03 10:11:42;;;;;;;6.90;2.93;;;13.50;99.90;;;;;;4917246;29;20480;-74
2022/11/03 10:14:15;;;;;;;4.97;2.50;;;13.50;99.90;;;;;;4918020;29;20966;-73
2022/11/03 10:16:47;;;;;;;7.67;2.83;;;13.60;99.90;;;;;;4918896;29;20425;-73
2022/11/03 10:19:20;;;;;;;7.90;3.27;;;13.60;99.90;;;;;;4918549;29;20435;-73
2022/11/03 10:21:48;;;;;;;8.50;2.80;;;13.70;99.90;;;;;;4918231;29;20460;-73
2022/11/03 10:24:17;;;;;;;5.60;2.40;;;13.70;99.90;;;;;;4918599;29;20946;-72
2022/11/03 10:26:46;;;;;;;8.70;3.30;;;13.70;99.90;;;;;;4918701;29;20440;-73
2022/11/03 10:29:21;;;;;;;5.87;2.77;;;13.80;99.90;;;;;;4918059;29;20440;-73
2022/11/03 10:31:52;;;;;;;8.40;3.83;;;13.80;99.90;;;;;;4917935;29;20498;-73
2022/11/03 10:34:26;;;;;;;9.63;3.60;;;13.90;99.90;;;;;;4918135;29;20443;-74
2022/11/03 10:37:16;;;;;;;7.93;3.57;;;13.90;99.90;;;;;;4918086;29;20429;-73
2022/11/03 10:39:45;;;;;;;5.40;2.70;;;13.90;99.90;;;;;;4916802;29;20447;-73
2022/11/03 10:42:19;;;;;;;7.60;3.30;;;14.00;99.90;;;;;;4917804;29;20459;-74
2022/11/03 10:44:52;;;;;;;7.23;3.30;;;14.00;99.90;;;;;;4916641;29;20444;-73
2022/11/03 10:47:26;;;;;;;8.70;3.13;;;14.00;99.90;;;;;;4918171;29;20500;-73
2022/11/03 10:49:55;;;;;;;5.10;2.93;;;14.00;99.90;;;;;;4918255;29;20905;-72
2022/11/03 10:52:24;;;;;;;7.23;2.90;;;14.00;99.90;;;;;;4916334;29;20526;-73
2022/11/03 10:54:55;;;;;;;5.57;2.73;;;14.00;99.90;;;;;;4916567;29;20452;-73
2022/11/03 10:57:24;;;;;;;6.30;3.67;;;14.00;99.90;;;;;;4918045;29;20448;-73
2022/11/03 10:59:54;;;;;;;9.70;3.70;;;14.10;99.90;;;;;;4917873;29;20454;-73
2022/11/03 11:02:25;;;;;;;9.40;3.10;;;14.10;99.90;;;;;;4917448;29;20558;-73
2022/11/03 11:04:58;;;;;;;5.27;2.87;;;14.10;99.90;;;;;;4916415;29;20440;-73
2022/11/03 11:07:33;;;;;;;7.90;3.43;;;14.10;99.90;;;;;;4916345;29;20448;-73
2022/11/03 11:10:07;;;;;;;7.60;3.20;;;14.20;99.90;;;;;;4916439;29;20550;-73
2022/11/03 11:12:35;;;;;;;7.03;3.20;;;14.20;99.90;;;;;;4916045;29;20476;-73
2022/11/03 11:15:38;;;;;;;6.63;2.97;;;14.20;99.90;;;;;;4917322;29;20507;-73
2022/11/03 11:18:06;;;;;;;6.80;2.93;;;14.20;99.90;;;;;;4915940;29;20504;-74
2022/11/03 11:20:37;;;;;;;7.50;2.60;;;14.20;99.90;;;;;;4917072;29;20437;-74
2022/11/03 11:23:47;;;;;;;6.60;3.23;;;14.20;99.90;;;;;;4917620;29;20470;-74
2022/11/03 11:26:32;;;;;;;9.50;2.87;;;14.30;99.90;;;;;;4917114;29;20974;-74
2022/11/03 11:29:40;;;;;;;6.27;2.43;;;14.30;99.90;;;;;;4920413;29;20572;-73
2022/11/03 11:32:51;;;;;;;6.23;2.80;;;14.40;99.90;;;;;;4920957;29;20562;-74
2022/11/03 11:36:01;;;;;;;6.10;2.43;;;14.40;99.90;;;;;;4921407;29;20425;-74
2022/11/03 11:38:56;;;;;;;9.10;3.03;;;14.40;99.90;;;;;;4921053;29;20519;-74
2022/11/03 11:42:03;;;;;;;6.40;2.40;;;14.50;99.90;;;;;;4920885;29;20467;-74
2022/11/03 11:44:51;;;;;;;7.43;3.50;;;14.50;99.90;;;;;;4921538;29;20516;-74
2022/11/03 11:47:26;;;;;;;6.60;2.70;;;14.50;99.90;;;;;;4920910;29;20430;-74
2022/11/03 11:50:16;;;;;;;8.53;2.80;;;14.50;99.90;;;;;;4919376;29;20444;-74
2022/11/03 11:52:47;;;;;;;5.03;2.80;;;14.50;99.90;;;;;;4920658;29;20527;-73
2022/11/03 11:55:26;;;;;;;6.83;2.60;;;14.50;99.90;;;;;;4920826;29;20909;-74
2022/11/03 11:57:55;;;;;;;6.60;2.80;;;14.50;99.90;;;;;;4920838;29;20433;-74
2022/11/03 12:00:25;;;;;;;6.90;3.10;;;14.50;99.90;;;;;;4920622;29;20495;-74
2022/11/03 12:02:55;;;;;;;10.03;2.80;;;14.60;99.90;;;;;;4919060;29;20468;-74
2022/11/03 12:05:26;;;;;;;5.47;2.50;;;14.60;99.90;;;;;;4920614;29;20961;-74
2022/11/03 12:07:55;;;;;;;8.33;2.60;;;14.60;99.90;;;;;;4920508;29;20432;-74
2022/11/03 12:10:27;;;;;;;5.37;2.53;;;14.60;99.90;;;;;;4918991;29;20468;-74
2022/11/03 12:12:56;;;;;;;7.63;2.77;;;14.60;99.90;;;;;;4918848;29;21009;-74
2022/11/03 12:15:50;;;;;;;8.13;3.17;;;14.60;99.90;;;;;;4918930;29;20455;-74
2022/11/03 12:18:32;;;;;;;7.00;2.73;;;14.60;99.90;;;;;;4920344;29;20832;-74
2022/11/03 12:21:09;;;;;;;6.63;2.60;;;14.60;99.90;;;;;;4920738;29;20577;-74
2022/11/03 12:23:41;;;;;;;8.60;3.00;;;14.60;99.90;;;;;;4920317;29;20447;-74
2022/11/03 12:26:18;;;;;;;8.63;3.07;;;14.60;99.90;;;;;;4918747;29;20825;-74
2022/11/03 12:28:46;;;;;;;5.80;2.60;;;14.60;99.90;;;;;;4920491;29;20423;-74
2022/11/03 12:31:14;;;;;;;5.77;2.60;;;14.60;99.90;;;;;;4920354;29;20519;-74
2022/11/03 12:33:42;;;;;;;7.33;3.30;;;14.60;99.90;;;;;;4919990;29;20472;-74
2022/11/03 12:36:10;;;;;;;7.67;2.90;;;14.60;99.90;;;;;;4919487;29;20444;-73
2022/11/03 12:38:38;;;;;;;6.43;2.93;;;14.60;99.90;;;;;;4919769;29;20444;-74
2022/11/03 12:43:56;;;;;;;7.83;3.43;;;14.60;99.90;;;;;;4918476;29;20456;-74
2022/11/03 12:46:24;;;;;;;6.90;3.20;;;14.60;99.90;;;;;;4919629;29;20459;-74
2022/11/03 12:48:53;;;;;;;4.70;2.20;;;14.60;99.90;;;;;;4919542;29;20503;-74
2022/11/03 12:51:23;;;;;;;4.60;2.57;;;14.60;99.90;;;;;;4918269;29;20934;-74
2022/11/03 12:53:51;;;;;;;5.27;2.90;;;14.60;99.90;;;;;;4919690;29;20466;-74
2022/11/03 12:56:19;;;;;;;5.30;2.57;;;14.60;99.90;;;;;;4919391;29;20995;-74
2022/11/03 12:58:47;;;;;;;6.13;2.80;;;14.60;99.90;;;;;;4918463;29;20867;-74
2022/11/03 13:01:17;;;;;;;6.67;3.10;;;14.60;99.90;;;;;;4919221;29;20532;-74
2022/11/03 13:03:45;;;;;;;9.00;3.30;;;14.60;99.90;;;;;;4919293;29;20449;-74
2022/11/03 13:06:13;;;;;;;7.00;2.70;;;14.50;99.90;;;;;;4919206;29;20454;-74
2022/11/03 13:08:42;;;;;;;5.43;2.80;;;14.50;99.90;;;;;;4919078;29;20449;-74
2022/11/03 13:13:56;;;;;;;8.23;3.57;;;14.50;99.90;;;;;;4919137;29;20487;-74
2022/11/03 13:16:25;;;;;;;8.27;3.47;;;14.50;99.90;;;;;;4917927;29;20488;-74
2022/11/03 13:18:53;;;;;;;8.17;4.10;;;14.50;99.90;;;;;;4917885;29;20454;-74
2022/11/03 13:21:21;;;;;;;10.33;3.30;;;14.50;99.90;;;;;;4918890;29;20848;-74
2022/11/03 13:23:51;;;;;;;8.13;3.60;;;14.40;99.90;;;;;;4917695;29;20444;-74
2022/11/03 13:26:19;;;;;;;8.70;4.73;;;14.40;99.90;;;;;;4920101;29;20777;-74
2022/11/03 13:28:47;;;;;;;6.83;4.03;;;14.40;99.90;;;;;;4919190;29;20783;-75
2022/11/03 13:31:16;;;;;;;8.90;4.30;;;14.40;99.90;;;;;;4919012;29;20460;-74
2022/11/03 13:33:45;;;;;;;6.57;3.17;;;14.40;99.90;;;;;;4919048;29;20568;-74